createdAt,value
2022-11-16T00:00:22.513Z,8.00
2022-11-16T00:02:53.197Z,9.50
2022-11-16T00:05:28.177Z,8.80
2022-11-16T00:07:59.035Z,9.40
2022-11-16T00:10:29.448Z,9.00
2022-11-16T00:12:59.883Z,8.70
2022-11-16T00:15:30.362Z,9.00
2022-11-16T00:18:00.740Z,9.30
2022-11-16T00:20:31.154Z,9.80
2022-11-16T00:23:01.529Z,9.50
2022-11-16T00:25:31.849Z,8.70
2022-11-16T00:28:02.246Z,8.70
2022-11-16T00:30:33.335Z,8.90
2022-11-16T00:33:04.478Z,8.20
2022-11-16T00:35:38.608Z,8.70
2022-11-16T00:38:10.246Z,8.80
2022-11-16T00:40:40.935Z,7.90
2022-11-16T00:43:11.395Z,9.80
2022-11-16T00:45:42.939Z,7.70
2022-11-16T00:50:45.061Z,8.50
2022-11-16T00:53:18.362Z,9.70
2022-11-16T00:55:49.693Z,9.10
2022-11-16T00:58:22.056Z,9.60
2022-11-16T01:00:58.785Z,9.80
2022-11-16T01:03:29.433Z,9.30
2022-11-16T01:06:04.270Z,9.80
2022-11-16T01:08:36.530Z,9.70
2022-11-16T01:11:26.057Z,10.60
2022-11-16T01:13:59.583Z,10.20
2022-11-16T01:16:32.487Z,9.80
2022-11-16T01:19:04.083Z,10.10
2022-11-16T01:21:38.131Z,9.90
2022-11-16T01:24:17.682Z,9.50
2022-11-16T01:26:59.659Z,10.20
2022-11-16T01:33:08.151Z,10.20
2022-11-16T01:39:41.150Z,10.20
2022-11-16T01:42:49.004Z,10.30
2022-11-16T01:45:54.010Z,10.70
2022-11-16T01:48:54.045Z,10.00
2022-11-16T01:51:36.382Z,10.60
2022-11-16T01:54:17.351Z,11.50
2022-11-16T02:04:30.630Z,11.30
2022-11-16T02:07:55.823Z,11.10
2022-11-16T02:11:14.037Z,10.20
2022-11-16T02:26:28.816Z,10.80
2022-11-16T02:27:41.638Z,10.30
2022-11-16T02:35:01.272Z,12.50
2022-11-16T02:42:01.425Z,12.50
2022-11-16T02:46:00.329Z,13.70
2022-11-16T02:57:19.416Z,14.20
2022-11-16T03:01:06.783Z,14.50
2022-11-16T03:08:01.301Z,14.70
2022-11-16T03:10:52.707Z,17.20
2022-11-16T03:13:25.710Z,15.30
2022-11-16T03:15:57.647Z,16.50
2022-11-16T03:18:30.093Z,15.30
2022-11-16T03:21:11.522Z,14.20
2022-11-16T03:23:42.281Z,13.60
2022-11-16T03:26:18.000Z,13.50
2022-11-16T03:28:58.126Z,14.60
2022-11-16T03:31:32.290Z,15.30
2022-11-16T03:34:08.948Z,14.00
2022-11-16T03:36:43.353Z,11.40
2022-11-16T03:39:19.970Z,14.30
2022-11-16T03:41:52.897Z,12.90
2022-11-16T03:44:24.163Z,13.30
2022-11-16T03:46:54.749Z,10.40
2022-11-16T03:49:30.733Z,13.10
2022-11-16T03:52:01.416Z,11.70
2022-11-16T03:54:32.608Z,10.70
2022-11-16T03:57:04.431Z,13.70
2022-11-16T03:59:35.538Z,13.90
2022-11-16T04:02:05.907Z,13.40
2022-11-16T04:04:53.936Z,13.10
2022-11-16T04:07:42.538Z,10.60
2022-11-16T04:10:31.689Z,9.50
2022-11-16T04:13:20.527Z,9.10
2022-11-16T04:16:08.268Z,9.50
2022-11-16T04:18:55.810Z,9.90
2022-11-16T04:21:46.971Z,9.10
2022-11-16T04:24:21.105Z,10.90
2022-11-16T04:27:13.187Z,10.60
2022-11-16T04:29:44.651Z,10.60
2022-11-16T04:32:33.391Z,12.50
2022-11-16T04:35:21.685Z,13.90
2022-11-16T04:37:53.528Z,13.50
2022-11-16T04:40:29.666Z,15.30
2022-11-16T04:43:03.268Z,14.90
2022-11-16T04:45:54.771Z,15.00
2022-11-16T04:48:28.010Z,16.70
2022-11-16T04:50:58.731Z,19.40
2022-11-16T04:53:29.409Z,16.60
2022-11-16T04:56:06.770Z,19.20
2022-11-16T05:01:07.313Z,19.40
2022-11-16T05:03:37.985Z,19.60
2022-11-16T05:06:09.272Z,20.20
2022-11-16T05:11:09.429Z,21.00
2022-11-16T05:13:39.917Z,18.90
2022-11-16T05:16:13.261Z,21.90
2022-11-16T05:18:43.904Z,22.40
2022-11-16T05:21:15.031Z,21.20
2022-11-16T05:24:04.186Z,21.40
2022-11-16T05:26:36.394Z,25.20
2022-11-16T05:29:06.840Z,23.70
2022-11-16T05:31:40.472Z,24.30
2022-11-16T05:34:12.784Z,22.70
2022-11-16T05:36:43.360Z,22.40
2022-11-16T05:39:14.840Z,20.10
2022-11-16T05:41:46.186Z,20.80
2022-11-16T05:44:17.737Z,22.70
2022-11-16T05:46:48.716Z,22.20
2022-11-16T05:49:21.796Z,22.90
2022-11-16T05:51:52.571Z,22.10
2022-11-16T05:54:25.846Z,21.50
2022-11-16T06:00:20.565Z,21.50
2022-11-16T06:02:54.217Z,24.60
2022-11-16T06:05:27.954Z,22.80
2022-11-16T06:07:58.493Z,22.10
2022-11-16T06:10:30.700Z,20.40
2022-11-16T06:13:02.441Z,23.10
2022-11-16T06:18:01.936Z,22.30
2022-11-16T06:20:32.929Z,21.30
2022-11-16T06:23:03.374Z,22.20
2022-11-16T06:25:34.717Z,22.80
2022-11-16T06:28:07.853Z,23.00
2022-11-16T06:30:41.914Z,25.10
2022-11-16T06:33:12.532Z,25.60
2022-11-16T06:35:43.193Z,22.40
2022-11-16T06:40:52.653Z,23.40
2022-11-16T06:43:24.471Z,23.00
2022-11-16T06:45:57.755Z,24.30
2022-11-16T06:48:28.149Z,23.50
2022-11-16T06:50:59.698Z,23.10
2022-11-16T06:53:30.462Z,21.80
2022-11-16T06:56:05.614Z,23.50
2022-11-16T06:58:42.563Z,21.60
2022-11-16T07:01:14.230Z,22.30
2022-11-16T07:03:45.685Z,19.40
2022-11-16T07:06:16.414Z,22.30
2022-11-16T07:08:48.286Z,22.30
2022-11-16T07:11:21.613Z,22.60
2022-11-16T07:13:52.551Z,23.60
2022-11-16T07:16:22.991Z,23.80
2022-11-16T07:18:59.954Z,21.80
2022-11-16T07:21:32.700Z,23.00
2022-11-16T07:24:04.764Z,20.80
2022-11-16T07:26:36.384Z,23.30
2022-11-16T07:29:13.729Z,22.80
2022-11-16T07:31:46.358Z,23.00
2022-11-16T07:37:07.292Z,18.80
2022-11-16T07:39:37.843Z,23.70
2022-11-16T07:42:11.695Z,23.90
2022-11-16T07:45:14.989Z,21.90
2022-11-16T07:47:53.243Z,23.80
2022-11-16T07:50:46.815Z,18.80
2022-11-16T07:53:18.888Z,22.60
2022-11-16T07:55:55.240Z,22.10
2022-11-16T07:58:26.430Z,19.50
2022-11-16T08:03:26.527Z,17.70
2022-11-16T08:06:03.636Z,21.70
2022-11-16T08:08:34.819Z,21.70
2022-11-16T08:13:37.769Z,22.10
2022-11-16T08:16:11.876Z,21.80
2022-11-16T08:18:43.599Z,21.50
2022-11-16T08:21:16.776Z,19.80
2022-11-16T08:23:47.914Z,21.10
2022-11-16T08:26:20.390Z,23.20
2022-11-16T08:28:56.326Z,20.10
2022-11-16T08:31:31.366Z,19.90
2022-11-16T08:34:18.550Z,19.40
2022-11-16T08:36:52.527Z,20.40
2022-11-16T08:39:26.961Z,17.40
2022-11-16T08:41:57.548Z,16.70
2022-11-16T08:44:28.041Z,15.10
2022-11-16T08:46:59.079Z,13.40
2022-11-16T08:49:38.150Z,13.60
2022-11-16T08:52:08.754Z,16.60
2022-11-16T08:54:41.238Z,17.20
2022-11-16T08:57:11.592Z,14.30
2022-11-16T08:59:42.707Z,13.80
2022-11-16T09:02:15.938Z,10.50
2022-11-16T09:04:46.368Z,8.70
2022-11-16T09:07:16.816Z,8.80
2022-11-16T09:09:47.396Z,9.40
2022-11-16T09:12:17.872Z,10.50
2022-11-16T09:14:48.357Z,9.70
2022-11-16T09:17:22.917Z,10.00
2022-11-16T09:19:53.789Z,10.00
2022-11-16T09:22:24.178Z,9.90
2022-11-16T09:24:54.471Z,8.00
2022-11-16T09:27:24.959Z,9.80
2022-11-16T09:29:55.254Z,10.20
2022-11-16T09:32:26.610Z,8.80
2022-11-16T09:37:26.034Z,7.30
2022-11-16T09:39:58.730Z,7.80
2022-11-16T09:42:39.371Z,7.80
2022-11-16T09:45:17.628Z,8.00
2022-11-16T09:47:52.857Z,6.80
2022-11-16T09:50:32.478Z,5.80
2022-11-16T09:53:13.464Z,6.10
2022-11-16T09:55:49.757Z,6.40
2022-11-16T09:58:24.955Z,7.00
2022-11-16T10:01:01.060Z,6.40
2022-11-16T10:03:39.530Z,6.10
2022-11-16T10:06:20.652Z,6.60
2022-11-16T10:08:53.114Z,6.40
2022-11-16T10:12:00.251Z,5.80
2022-11-16T10:15:04.752Z,6.00
2022-11-16T10:17:50.192Z,5.60
2022-11-16T10:20:38.593Z,5.30
2022-11-16T10:23:17.565Z,6.30
2022-11-16T10:25:53.661Z,7.60
2022-11-16T10:28:38.941Z,6.10
2022-11-16T10:31:19.458Z,8.10
2022-11-16T10:33:55.204Z,7.50
2022-11-16T10:36:30.323Z,7.50
2022-11-16T10:39:02.839Z,7.80
2022-11-16T10:41:40.921Z,8.90
2022-11-16T10:44:17.481Z,8.00
2022-11-16T10:46:57.101Z,7.80
2022-11-16T10:49:36.806Z,5.60
2022-11-16T10:52:07.542Z,5.70
2022-11-16T10:54:43.912Z,6.30
2022-11-16T10:57:15.044Z,5.70
2022-11-16T10:59:49.939Z,5.30
2022-11-16T11:02:48.812Z,4.80
2022-11-16T11:05:57.567Z,5.80
2022-11-16T11:08:31.440Z,5.90
2022-11-16T11:11:24.841Z,6.20
2022-11-16T11:14:10.392Z,5.40
2022-11-16T11:16:41.597Z,5.10
2022-11-16T11:19:25.540Z,5.80
2022-11-16T11:22:00.518Z,5.00
2022-11-16T11:24:44.432Z,5.10
2022-11-16T11:27:22.257Z,4.70
2022-11-16T11:29:58.540Z,4.90
2022-11-16T11:32:35.451Z,4.40
2022-11-16T11:35:06.669Z,5.50
2022-11-16T11:37:39.452Z,4.80
2022-11-16T11:40:21.257Z,4.70
2022-11-16T11:43:03.462Z,8.00
2022-11-16T11:45:42.954Z,5.10
2022-11-16T11:48:30.856Z,5.40
2022-11-16T11:51:05.869Z,4.20
2022-11-16T11:53:55.861Z,4.40
2022-11-16T11:56:27.097Z,3.60
2022-11-16T11:58:58.087Z,4.10
2022-11-16T12:02:02.418Z,3.60
2022-11-16T12:05:17.406Z,4.20
2022-11-16T12:08:00.757Z,3.80
2022-11-16T12:10:42.151Z,3.90
2022-11-16T12:16:07.729Z,4.40
2022-11-16T12:18:54.219Z,3.90
2022-11-16T12:21:40.257Z,4.10
2022-11-16T12:24:34.503Z,4.00
2022-11-16T12:27:16.370Z,3.60
2022-11-16T12:29:58.312Z,3.20
2022-11-16T12:32:47.002Z,4.20
2022-11-16T12:35:34.649Z,3.80
2022-11-16T12:38:24.826Z,3.80
2022-11-16T12:43:38.102Z,3.70
2022-11-16T12:46:18.816Z,3.40
2022-11-16T12:49:32.081Z,5.30
2022-11-16T12:52:19.102Z,6.50
2022-11-16T12:55:27.262Z,5.20
2022-11-16T12:58:11.311Z,10.70
2022-11-16T13:00:56.694Z,3.80
2022-11-16T13:03:36.156Z,5.50
2022-11-16T13:06:10.642Z,3.60
2022-11-16T13:08:50.918Z,4.90
2022-11-16T13:11:24.840Z,4.10
2022-11-16T13:14:01.338Z,3.90
2022-11-16T13:16:32.204Z,4.70
2022-11-16T13:19:05.015Z,5.10
2022-11-16T13:21:44.520Z,4.20
2022-11-16T13:24:34.105Z,6.30
2022-11-16T13:27:19.355Z,5.40
2022-11-16T13:29:58.334Z,5.10
2022-11-16T13:32:45.123Z,3.80
2022-11-16T13:35:18.410Z,4.20
2022-11-16T13:37:50.701Z,4.40
2022-11-16T13:40:37.710Z,4.40
2022-11-16T13:43:17.985Z,4.20
2022-11-16T13:45:57.946Z,4.20
2022-11-16T13:48:34.358Z,4.30
2022-11-16T13:51:09.132Z,4.20
2022-11-16T13:56:50.905Z,3.20
2022-11-16T13:59:27.462Z,3.90
2022-11-16T14:02:00.079Z,3.50
2022-11-16T14:04:57.854Z,3.70
2022-11-16T14:07:42.868Z,3.40
2022-11-16T14:10:34.694Z,3.30
2022-11-16T14:13:05.961Z,3.40
2022-11-16T14:18:36.832Z,3.90
2022-11-16T14:21:17.345Z,3.60
2022-11-16T14:24:07.955Z,3.70
2022-11-16T14:26:53.101Z,3.70
2022-11-16T14:29:55.897Z,4.60
2022-11-16T14:32:30.124Z,4.40
2022-11-16T14:35:18.500Z,4.00
2022-11-16T14:38:00.415Z,4.40
2022-11-16T14:40:31.831Z,3.60
2022-11-16T14:45:53.306Z,3.20
2022-11-16T14:48:26.095Z,2.30
2022-11-16T14:51:07.386Z,4.20
2022-11-16T14:53:45.051Z,3.40
2022-11-16T14:56:17.325Z,3.20
2022-11-16T14:58:55.279Z,2.90
2022-11-16T15:01:28.851Z,3.50
2022-11-16T15:04:03.501Z,2.70
2022-11-16T15:06:41.084Z,2.60
2022-11-16T15:09:18.827Z,3.00
2022-11-16T15:12:08.750Z,3.70
2022-11-16T15:14:43.833Z,3.00
2022-11-16T15:17:19.102Z,3.40
2022-11-16T15:19:57.802Z,3.10
2022-11-16T15:22:30.329Z,2.80
2022-11-16T15:25:02.580Z,2.80
2022-11-16T15:27:38.056Z,3.60
2022-11-16T15:30:19.418Z,3.30
2022-11-16T15:32:51.565Z,3.70
2022-11-16T15:35:24.671Z,4.00
2022-11-16T15:38:05.749Z,3.50
2022-11-16T15:40:37.148Z,4.50
2022-11-16T15:43:08.892Z,4.00
2022-11-16T15:45:40.258Z,3.50
2022-11-16T15:50:56.976Z,3.90
2022-11-16T15:53:39.438Z,3.60
2022-11-16T15:56:13.692Z,3.60
2022-11-16T15:58:44.992Z,3.90
2022-11-16T16:03:55.607Z,3.90
2022-11-16T16:06:47.682Z,3.30
2022-11-16T16:09:25.931Z,4.30
2022-11-16T16:11:58.116Z,3.30
2022-11-16T16:14:30.780Z,3.90
2022-11-16T16:17:02.033Z,3.80
2022-11-16T16:19:41.450Z,3.50
2022-11-16T16:22:26.378Z,3.90
2022-11-16T16:24:56.968Z,4.00
2022-11-16T16:27:30.215Z,4.70
2022-11-16T16:30:04.728Z,4.40
2022-11-16T16:32:36.885Z,5.00
2022-11-16T16:35:16.324Z,5.20
2022-11-16T16:37:49.517Z,4.30
2022-11-16T16:40:20.820Z,4.40
2022-11-16T16:45:25.848Z,4.60
2022-11-16T16:47:56.578Z,3.90
2022-11-16T16:50:27.300Z,3.90
2022-11-16T16:52:58.105Z,3.90
2022-11-16T16:55:32.887Z,4.70
2022-11-16T16:58:07.376Z,4.30
2022-11-16T17:00:37.897Z,4.90
2022-11-16T17:03:10.105Z,4.50
2022-11-16T17:05:41.853Z,4.10
2022-11-16T17:08:12.368Z,4.40
2022-11-16T17:10:43.067Z,5.50
2022-11-16T17:13:13.355Z,5.40
2022-11-16T17:15:43.744Z,5.50
2022-11-16T17:18:14.558Z,5.10
2022-11-16T17:20:45.574Z,5.20
2022-11-16T17:23:18.231Z,5.20
2022-11-16T17:25:49.077Z,5.50
2022-11-16T17:28:20.051Z,5.50
2022-11-16T17:30:50.783Z,6.00
2022-11-16T17:33:21.232Z,6.00
2022-11-16T17:36:01.503Z,5.90
2022-11-16T17:38:32.087Z,5.90
2022-11-16T17:41:10.494Z,5.40
2022-11-16T17:43:41.979Z,6.60
2022-11-16T17:46:14.489Z,5.30
2022-11-16T17:48:47.085Z,5.70
2022-11-16T17:51:19.518Z,5.40
2022-11-16T17:53:50.518Z,5.70
2022-11-16T17:56:22.405Z,5.80
2022-11-16T17:58:54.886Z,4.90
2022-11-16T18:01:25.823Z,5.70
2022-11-16T18:03:56.539Z,5.30
2022-11-16T18:06:27.874Z,5.90
2022-11-16T18:11:29.471Z,6.70
2022-11-16T18:14:01.420Z,7.80
2022-11-16T18:16:33.800Z,13.10
2022-11-16T18:19:06.210Z,9.20
2022-11-16T18:21:42.561Z,8.00
2022-11-16T18:24:14.113Z,6.80
2022-11-16T18:26:44.692Z,5.20
2022-11-16T18:29:15.964Z,6.70
2022-11-16T18:34:16.790Z,6.60
2022-11-16T18:36:48.873Z,6.30
2022-11-16T18:39:19.523Z,5.00
2022-11-16T18:41:55.155Z,5.60
2022-11-16T18:44:25.971Z,7.20
2022-11-16T18:46:56.405Z,6.80
2022-11-16T18:49:27.619Z,6.90
2022-11-16T18:51:58.115Z,7.10
2022-11-16T18:54:29.098Z,8.60
2022-11-16T18:57:00.926Z,10.60
2022-11-16T18:59:31.376Z,7.40
2022-11-16T19:02:02.027Z,7.80
2022-11-16T19:04:32.729Z,7.00
2022-11-16T19:07:03.363Z,6.50
2022-11-16T19:09:33.804Z,5.30
2022-11-16T19:12:04.459Z,6.10
2022-11-16T19:14:34.937Z,6.10
2022-11-16T19:17:05.943Z,6.80
2022-11-16T19:19:36.501Z,7.20
2022-11-16T19:22:06.913Z,25.90
2022-11-16T19:24:37.251Z,14.80
2022-11-16T19:27:09.754Z,7.60
2022-11-16T19:29:40.675Z,9.60
2022-11-16T19:32:11.116Z,6.20
2022-11-16T19:34:41.823Z,6.00
2022-11-16T19:37:12.258Z,6.00
2022-11-16T19:39:42.642Z,11.10
2022-11-16T19:42:17.404Z,9.10
2022-11-16T19:44:47.867Z,8.50
2022-11-16T19:47:18.833Z,8.10
2022-11-16T19:52:20.542Z,5.00
2022-11-16T19:54:50.905Z,5.10
2022-11-16T19:57:21.408Z,4.40
2022-11-16T19:59:52.033Z,4.20
2022-11-16T20:02:22.663Z,4.80
2022-11-16T20:04:54.304Z,4.80
2022-11-16T20:07:24.831Z,4.30
2022-11-16T20:09:55.548Z,4.40
2022-11-16T20:12:25.981Z,5.00
2022-11-16T20:14:56.488Z,4.40
2022-11-16T20:17:27.316Z,3.60
2022-11-16T20:19:57.954Z,4.70
2022-11-16T20:22:28.225Z,4.60
2022-11-16T20:24:58.944Z,4.20
2022-11-16T20:27:29.330Z,5.60
2022-11-16T20:30:01.753Z,4.80
2022-11-16T20:32:35.601Z,6.70
2022-11-16T20:35:06.885Z,8.30
2022-11-16T20:40:08.763Z,6.40
2022-11-16T20:42:39.322Z,4.70
2022-11-16T20:45:12.592Z,4.50
2022-11-16T20:47:43.605Z,20.50
2022-11-16T20:50:14.038Z,8.80
2022-11-16T20:52:51.432Z,7.70
2022-11-16T20:55:23.426Z,6.50
2022-11-16T20:57:54.125Z,7.00
2022-11-16T21:00:24.809Z,6.90
2022-11-16T21:02:55.476Z,10.50
2022-11-16T21:05:25.889Z,14.70
2022-11-16T21:07:59.450Z,13.40
2022-11-16T21:10:31.022Z,8.70
2022-11-16T21:13:18.993Z,10.70
2022-11-16T21:15:57.904Z,7.80
2022-11-16T21:18:30.896Z,5.20
2022-11-16T21:21:02.983Z,6.20
2022-11-16T21:23:35.059Z,9.10
2022-11-16T21:26:07.399Z,5.00
2022-11-16T21:28:37.889Z,6.40
2022-11-16T21:31:10.547Z,5.90
2022-11-16T21:33:41.097Z,11.60
2022-11-16T21:36:16.168Z,5.80
2022-11-16T21:38:48.839Z,5.00
2022-11-16T21:41:20.735Z,5.70
2022-11-16T21:43:51.571Z,9.70
2022-11-16T21:46:24.751Z,5.90
2022-11-16T21:48:56.490Z,6.40
2022-11-16T21:51:28.072Z,5.70
2022-11-16T21:53:58.398Z,4.70
2022-11-16T21:56:28.780Z,4.70
2022-11-16T21:59:00.087Z,4.20
2022-11-16T22:01:51.232Z,5.10
2022-11-16T22:04:39.351Z,5.80
2022-11-16T22:07:34.418Z,5.50
2022-11-16T22:10:06.893Z,4.50
2022-11-16T22:12:39.369Z,5.80
2022-11-16T22:15:11.156Z,6.50
2022-11-16T22:17:45.325Z,6.70
2022-11-16T22:20:15.615Z,4.90
2022-11-16T22:22:46.281Z,5.70
2022-11-16T22:25:16.924Z,6.20
2022-11-16T22:28:19.279Z,5.00
2022-11-16T22:30:41.050Z,4.00
2022-11-16T22:33:11.988Z,3.70
2022-11-16T22:35:42.376Z,4.60
2022-11-16T22:38:12.992Z,4.90
2022-11-16T22:40:49.101Z,4.70
2022-11-16T22:43:19.578Z,3.90
2022-11-16T22:45:50.265Z,4.20
2022-11-16T22:48:20.728Z,4.70
2022-11-16T22:50:51.409Z,4.00
2022-11-16T22:53:21.781Z,3.80
2022-11-16T22:55:52.120Z,3.80
2022-11-16T22:58:22.554Z,5.00
2022-11-16T23:00:53.918Z,4.40
2022-11-16T23:05:53.369Z,4.20
2022-11-16T23:08:25.609Z,4.20
2022-11-16T23:11:21.035Z,4.40
2022-11-16T23:14:09.880Z,4.10
2022-11-16T23:16:40.584Z,3.90
2022-11-16T23:19:26.248Z,3.60
2022-11-16T23:22:10.888Z,4.40
2022-11-16T23:24:58.688Z,4.50
2022-11-16T23:27:34.637Z,3.90
2022-11-16T23:30:12.451Z,4.10
2022-11-16T23:32:43.501Z,4.10
2022-11-16T23:35:14.400Z,4.40
2022-11-16T23:37:56.263Z,4.30
2022-11-16T23:40:28.438Z,4.80
2022-11-16T23:43:16.899Z,4.10
2022-11-16T23:45:47.647Z,4.60
2022-11-16T23:48:19.351Z,4.40
2022-11-16T23:50:50.051Z,3.90
2022-11-16T23:53:20.626Z,4.80
2022-11-16T23:55:51.075Z,3.90
2022-11-16T23:58:21.466Z,4.20
